Time;durP1;ratioP1;P1;durP2;ratioP2;P2;SDS_P1;SDS_P2;PMS_P1;PMS_P2;Temp;Humidity;BMP_temperature;BMP_pressure;BME280_temperature;BME280_humidity;BME280_pressure;Samples;Min_cycle;Max_cycle;Signal;HPM_P1;HPM_P2
2021/12/06 00:00:12;;;;;;;1.63;1.40;;;5.00;98.20;;;;;;5028357;28;20541;-74
2021/12/06 00:02:39;;;;;;;1.63;1.30;;;5.00;98.20;;;;;;5028393;28;20691;-74
2021/12/06 00:05:07;;;;;;;1.63;1.40;;;5.00;98.20;;;;;;5020507;28;20471;-74
2021/12/06 00:07:34;;;;;;;1.60;1.40;;;5.00;98.20;;;;;;5030273;28;20486;-74
2021/12/06 00:10:00;;;;;;;1.60;1.30;;;4.90;98.20;;;;;;5024544;28;20456;-75
2021/12/06 00:12:29;;;;;;;1.60;1.40;;;4.90;98.20;;;;;;5024191;28;20770;-74
2021/12/06 00:14:55;;;;;;;1.60;1.30;;;5.00;98.20;;;;;;5029168;28;20463;-74
2021/12/06 00:17:22;;;;;;;1.60;1.30;;;5.00;98.20;;;;;;5022319;28;20492;-74
2021/12/06 00:19:50;;;;;;;1.60;1.30;;;5.00;98.20;;;;;;5028071;28;20586;-74
2021/12/06 00:22:22;;;;;;;1.60;1.33;;;5.00;98.20;;;;;;5019932;28;21125;-74
2021/12/06 00:24:50;;;;;;;1.63;1.40;;;5.00;98.20;;;;;;5025835;28;20546;-74
2021/12/06 00:27:17;;;;;;;2.37;2.17;;;5.00;98.20;;;;;;5028438;28;20732;-74
2021/12/06 00:29:48;;;;;;;1.63;1.30;;;5.00;98.20;;;;;;5030884;28;20954;-74
2021/12/06 00:32:15;;;;;;;1.60;1.40;;;5.00;98.20;;;;;;5027228;28;20513;-74
2021/12/06 00:34:43;;;;;;;1.70;1.60;;;5.00;98.20;;;;;;5030488;28;20464;-74
2021/12/06 00:37:21;;;;;;;1.70;1.50;;;5.00;98.20;;;;;;5024210;28;20482;-74
2021/12/06 00:39:50;;;;;;;1.67;1.30;;;5.00;98.20;;;;;;5030935;28;20856;-74
2021/12/06 00:42:18;;;;;;;1.63;1.37;;;5.00;98.20;;;;;;5018697;28;20486;-74
2021/12/06 00:44:46;;;;;;;1.60;1.30;;;5.00;98.20;;;;;;5025981;28;20490;-74
2021/12/06 00:47:14;;;;;;;1.60;1.30;;;5.00;98.20;;;;;;5029603;28;20489;-74
2021/12/06 00:49:44;;;;;;;1.60;1.40;;;5.00;98.20;;;;;;5029556;28;20462;-74
2021/12/06 00:52:11;;;;;;;1.70;1.40;;;5.00;98.20;;;;;;5027959;28;21433;-74
2021/12/06 00:54:38;;;;;;;1.60;1.40;;;4.90;98.20;;;;;;5029782;28;20463;-74
2021/12/06 00:57:07;;;;;;;1.60;1.40;;;4.90;98.20;;;;;;5024064;28;20490;-74
2021/12/06 00:59:34;;;;;;;1.67;1.30;;;4.90;98.20;;;;;;5027970;28;20487;-74
2021/12/06 01:02:03;;;;;;;1.63;1.40;;;4.90;98.20;;;;;;5025281;28;20478;-74
2021/12/06 01:04:32;;;;;;;1.67;1.40;;;4.90;98.20;;;;;;5027652;28;20473;-74
2021/12/06 01:06:59;;;;;;;1.60;1.30;;;4.90;98.20;;;;;;5023984;28;20505;-74
2021/12/06 01:09:26;;;;;;;1.60;1.30;;;4.90;98.20;;;;;;5029492;28;20455;-74
2021/12/06 01:11:53;;;;;;;1.60;1.37;;;4.90;98.20;;;;;;5016577;28;20511;-75
2021/12/06 01:14:21;;;;;;;1.60;1.30;;;4.90;98.20;;;;;;5030037;28;20835;-74
2021/12/06 01:16:49;;;;;;;1.67;1.30;;;4.80;98.20;;;;;;5025978;28;20912;-74
2021/12/06 01:19:19;;;;;;;1.60;1.40;;;4.80;98.20;;;;;;5032073;28;20497;-74
2021/12/06 01:21:51;;;;;;;1.63;1.40;;;4.80;98.20;;;;;;5019218;28;20526;-74
2021/12/06 01:24:25;;;;;;;1.60;1.30;;;4.80;98.20;;;;;;5025770;28;20890;-74
2021/12/06 01:27:11;;;;;;;1.60;1.40;;;4.80;98.20;;;;;;5016032;28;20561;-74
2021/12/06 01:30:04;;;;;;;1.60;1.40;;;4.80;98.20;;;;;;5029816;28;20460;-74
2021/12/06 01:33:01;;;;;;;1.70;1.43;;;4.70;98.20;;;;;;5028562;28;20525;-74
2021/12/06 01:40:56;;;;;;;1.60;1.40;;;4.80;98.20;;;;;;5012151;28;20498;-75
2021/12/06 01:43:23;;;;;;;1.60;1.40;;;4.70;98.20;;;;;;5030386;28;20475;-74
2021/12/06 01:45:50;;;;;;;1.60;1.40;;;4.70;98.20;;;;;;5016714;28;20517;-74
2021/12/06 01:48:17;;;;;;;1.60;1.40;;;4.80;98.20;;;;;;5034321;28;20464;-74
2021/12/06 01:50:46;;;;;;;1.70;1.50;;;4.80;98.20;;;;;;5024045;28;20455;-74
2021/12/06 01:53:13;;;;;;;1.60;1.40;;;4.80;98.20;;;;;;5011651;28;21013;-74
2021/12/06 01:55:40;;;;;;;1.70;1.50;;;4.70;98.20;;;;;;5022552;28;20475;-75
2021/12/06 01:58:09;;;;;;;1.60;1.30;;;4.70;98.20;;;;;;5013541;28;20853;-74
2021/12/06 02:00:40;;;;;;;1.60;1.40;;;4.70;98.20;;;;;;5021849;28;20487;-74
2021/12/06 02:03:07;;;;;;;1.70;1.40;;;4.70;98.20;;;;;;5016652;28;21036;-75
2021/12/06 02:05:35;;;;;;;1.60;1.40;;;4.70;98.20;;;;;;5025322;28;20451;-74
2021/12/06 02:08:04;;;;;;;1.60;1.30;;;4.70;98.20;;;;;;5018659;28;20536;-74
2021/12/06 02:10:31;;;;;;;1.60;1.30;;;4.70;98.20;;;;;;5026638;28;20462;-74
2021/12/06 02:12:58;;;;;;;1.67;1.40;;;4.60;98.20;;;;;;5021554;28;20478;-75
2021/12/06 02:15:37;;;;;;;1.60;1.30;;;4.60;98.20;;;;;;5027464;28;20703;-75
2021/12/06 02:18:10;;;;;;;1.60;1.40;;;4.60;98.20;;;;;;5031061;28;20486;-75
2021/12/06 02:20:46;;;;;;;1.67;1.40;;;4.60;98.20;;;;;;5027832;28;20562;-74
2021/12/06 02:23:17;;;;;;;1.60;1.40;;;4.50;98.20;;;;;;5013201;28;20481;-75
2021/12/06 02:25:44;;;;;;;1.70;1.50;;;4.50;98.20;;;;;;5040411;28;20573;-74
2021/12/06 02:28:11;;;;;;;1.60;1.40;;;4.50;98.20;;;;;;5017214;28;20620;-74
2021/12/06 02:30:38;;;;;;;1.63;1.40;;;4.50;98.20;;;;;;5046228;28;20549;-74
2021/12/06 02:33:05;;;;;;;1.60;1.40;;;4.40;98.20;;;;;;5007547;28;20511;-75
2021/12/06 02:35:33;;;;;;;1.60;1.40;;;4.40;98.20;;;;;;5042471;28;20498;-74
2021/12/06 02:38:02;;;;;;;1.67;1.43;;;4.40;98.20;;;;;;5033029;28;20543;-75
2021/12/06 02:40:32;;;;;;;1.67;1.40;;;4.40;98.20;;;;;;5042294;28;21009;-74
2021/12/06 02:43:02;;;;;;;1.60;1.40;;;4.40;98.20;;;;;;5024523;28;20987;-74
2021/12/06 02:45:30;;;;;;;1.67;1.40;;;4.40;98.20;;;;;;5045222;28;20953;-75
2021/12/06 02:48:03;;;;;;;1.60;1.40;;;4.40;98.20;;;;;;5024385;28;21002;-75
2021/12/06 02:50:34;;;;;;;1.60;1.30;;;4.40;98.20;;;;;;5044643;28;20542;-75
2021/12/06 02:53:02;;;;;;;1.70;1.50;;;4.40;98.20;;;;;;5032837;28;20890;-75
2021/12/06 02:55:34;;;;;;;1.67;1.40;;;4.40;98.20;;;;;;5043714;28;20556;-75
2021/12/06 02:58:15;;;;;;;1.60;1.40;;;4.40;98.20;;;;;;5033164;28;20541;-75
2021/12/06 03:00:44;;;;;;;1.70;1.40;;;4.40;98.20;;;;;;5041870;28;21024;-75
2021/12/06 03:03:11;;;;;;;1.63;1.43;;;4.40;98.20;;;;;;5033750;28;20486;-75
2021/12/06 03:05:38;;;;;;;1.60;1.40;;;4.40;98.20;;;;;;5042491;28;20497;-75
2021/12/06 03:08:07;;;;;;;1.67;1.40;;;4.40;98.20;;;;;;5011581;28;20479;-75
2021/12/06 03:10:35;;;;;;;1.63;1.40;;;4.40;98.20;;;;;;5043558;28;20450;-74
2021/12/06 03:13:03;;;;;;;1.60;1.40;;;4.40;98.20;;;;;;5023518;28;20474;-75
2021/12/06 03:15:31;;;;;;;1.60;1.30;;;4.40;98.20;;;;;;5042751;28;20458;-74
2021/12/06 03:17:59;;;;;;;1.67;1.47;;;4.40;98.20;;;;;;5012969;28;20547;-75
2021/12/06 03:20:26;;;;;;;1.63;1.40;;;4.40;98.20;;;;;;5042500;28;21009;-75
2021/12/06 03:22:53;;;;;;;1.60;1.40;;;4.40;98.20;;;;;;5031269;28;20486;-76
2021/12/06 03:25:20;;;;;;;1.67;1.40;;;4.40;98.20;;;;;;5045576;28;20613;-75
2021/12/06 03:27:48;;;;;;;1.63;1.40;;;4.40;98.20;;;;;;5019291;28;20490;-75
2021/12/06 03:30:16;;;;;;;1.70;1.50;;;4.40;98.20;;;;;;5046463;28;20957;-75
2021/12/06 03:32:43;;;;;;;1.63;1.40;;;4.40;98.20;;;;;;5033332;28;20494;-75
2021/12/06 03:35:11;;;;;;;1.63;1.40;;;4.40;98.20;;;;;;5045825;28;20458;-75
2021/12/06 03:37:38;;;;;;;1.63;1.40;;;4.40;98.20;;;;;;5025743;28;20584;-75
2021/12/06 03:40:07;;;;;;;1.60;1.40;;;4.40;98.20;;;;;;5048251;28;20482;-75
2021/12/06 03:42:34;;;;;;;1.67;1.37;;;4.40;98.20;;;;;;5038130;28;20478;-75
2021/12/06 03:45:06;;;;;;;1.67;1.40;;;4.40;98.20;;;;;;5048830;28;20465;-75
2021/12/06 03:47:33;;;;;;;1.70;1.40;;;4.40;98.20;;;;;;5036054;28;20491;-75
2021/12/06 03:50:00;;;;;;;1.70;1.40;;;4.30;98.20;;;;;;5046384;28;20942;-75
2021/12/06 03:52:28;;;;;;;1.70;1.50;;;4.30;98.20;;;;;;5035549;28;20938;-75
2021/12/06 03:54:55;;;;;;;1.67;1.40;;;4.30;98.20;;;;;;5036741;28;20977;-75
2021/12/06 03:57:23;;;;;;;1.60;1.40;;;4.30;98.20;;;;;;5034896;28;20500;-75
2021/12/06 03:59:52;;;;;;;1.70;1.40;;;4.20;98.20;;;;;;5045819;28;20862;-75
2021/12/06 04:02:24;;;;;;;1.67;1.40;;;4.20;98.20;;;;;;5035270;28;20940;-75
2021/12/06 04:04:51;;;;;;;1.67;1.40;;;4.10;98.20;;;;;;5046139;28;20546;-75
2021/12/06 04:07:19;;;;;;;1.70;1.50;;;4.00;98.20;;;;;;5024895;28;20482;-76
2021/12/06 04:09:46;;;;;;;1.60;1.40;;;4.00;98.20;;;;;;5049942;28;20540;-76
2021/12/06 04:12:14;;;;;;;1.60;1.40;;;3.90;98.20;;;;;;5032875;28;20554;-75
2021/12/06 04:14:42;;;;;;;1.70;1.50;;;3.80;98.20;;;;;;5047476;28;20463;-75
2021/12/06 04:17:12;;;;;;;1.70;1.60;;;3.80;98.20;;;;;;5035921;28;20485;-77
2021/12/06 04:19:41;;;;;;;1.63;1.40;;;3.70;98.20;;;;;;5051040;28;21055;-76
2021/12/06 04:22:08;;;;;;;1.73;1.63;;;3.60;98.20;;;;;;5036674;28;20475;-77
2021/12/06 04:24:36;;;;;;;1.70;1.60;;;3.50;98.20;;;;;;5048803;28;20550;-77
2021/12/06 04:27:13;;;;;;;1.60;1.50;;;3.50;98.20;;;;;;5034213;28;20509;-77
2021/12/06 04:29:40;;;;;;;1.60;1.40;;;3.40;98.20;;;;;;5050030;28;20965;-77
2021/12/06 04:32:09;;;;;;;1.63;1.40;;;3.30;98.20;;;;;;5036337;28;20482;-76
2021/12/06 04:34:36;;;;;;;1.63;1.50;;;3.30;98.20;;;;;;5041432;28;20470;-78
2021/12/06 04:37:05;;;;;;;1.67;1.50;;;3.20;98.20;;;;;;5040579;28;20562;-79
2021/12/06 04:39:32;;;;;;;1.60;1.50;;;3.20;98.20;;;;;;5049681;28;20679;-76
2021/12/06 04:41:59;;;;;;;1.80;1.70;;;3.10;98.20;;;;;;5031017;28;20536;-76
2021/12/06 04:44:27;;;;;;;1.63;1.50;;;3.10;98.20;;;;;;5024936;28;20467;-77
2021/12/06 04:46:54;;;;;;;1.63;1.50;;;3.00;98.20;;;;;;5031255;28;20517;-78
2021/12/06 04:49:24;;;;;;;1.67;1.50;;;3.00;98.20;;;;;;5047405;28;20522;-78
2021/12/06 04:51:53;;;;;;;1.70;1.50;;;3.00;98.20;;;;;;5041135;28;20494;-77
2021/12/06 04:54:24;;;;;;;1.60;1.50;;;2.90;98.20;;;;;;5045918;28;20459;-75
2021/12/06 04:56:55;;;;;;;1.70;1.50;;;3.00;98.20;;;;;;5034650;28;20490;-76
2021/12/06 04:59:27;;;;;;;1.70;1.60;;;2.90;98.20;;;;;;5044325;28;20593;-75
2021/12/06 05:01:58;;;;;;;1.70;1.50;;;2.90;98.20;;;;;;5030840;28;20479;-76
2021/12/06 05:04:28;;;;;;;1.70;1.50;;;2.90;98.20;;;;;;5044220;28;20969;-75
2021/12/06 05:07:00;;;;;;;1.70;1.50;;;2.90;98.20;;;;;;5033898;28;20482;-76
2021/12/06 05:09:32;;;;;;;1.70;1.50;;;2.90;98.20;;;;;;5045783;28;20458;-75
2021/12/06 05:11:59;;;;;;;1.70;1.50;;;2.80;98.20;;;;;;5037072;28;20939;-77
2021/12/06 05:14:27;;;;;;;1.70;1.50;;;2.80;98.20;;;;;;5047032;28;20466;-75
2021/12/06 05:16:55;;;;;;;1.70;1.50;;;2.80;98.20;;;;;;5029248;28;21065;-76
2021/12/06 05:19:22;;;;;;;1.70;1.60;;;2.80;98.20;;;;;;5043690;28;20467;-75
2021/12/06 05:21:49;;;;;;;1.60;1.50;;;2.80;98.20;;;;;;5027189;28;21020;-76
2021/12/06 05:24:16;;;;;;;1.70;1.50;;;2.80;98.20;;;;;;5041142;28;20490;-75
2021/12/06 05:26:46;;;;;;;1.70;1.50;;;2.70;98.20;;;;;;5032490;28;20501;-75
2021/12/06 05:29:20;;;;;;;1.70;1.50;;;2.70;98.20;;;;;;5044810;28;20738;-76
2021/12/06 05:31:55;;;;;;;1.70;1.57;;;2.70;98.20;;;;;;5032988;28;20545;-75
2021/12/06 05:34:29;;;;;;;1.70;1.60;;;2.60;98.20;;;;;;5040331;28;20523;-75
2021/12/06 05:36:55;;;;;;;1.70;1.60;;;2.60;98.20;;;;;;5030187;28;20496;-76
2021/12/06 05:39:22;;;;;;;1.70;1.50;;;2.60;98.20;;;;;;5045653;28;20541;-76
2021/12/06 05:41:51;;;;;;;1.70;1.57;;;2.60;98.20;;;;;;5030838;28;20483;-75
2021/12/06 05:44:18;;;;;;;1.70;1.50;;;2.60;98.20;;;;;;5035395;28;20817;-75
2021/12/06 05:46:45;;;;;;;1.70;1.60;;;2.60;98.20;;;;;;5034848;28;20561;-75
2021/12/06 05:49:12;;;;;;;1.70;1.50;;;2.60;98.20;;;;;;5043513;28;20502;-74
2021/12/06 05:51:38;;;;;;;1.67;1.50;;;2.70;98.20;;;;;;5035761;28;20862;-75
2021/12/06 05:54:05;;;;;;;1.70;1.60;;;2.70;98.20;;;;;;5042263;28;20459;-75
2021/12/06 05:56:32;;;;;;;1.70;1.50;;;2.70;98.20;;;;;;5021750;28;20496;-75
2021/12/06 05:59:00;;;;;;;1.70;1.50;;;2.70;98.20;;;;;;5037824;28;20472;-75
2021/12/06 06:01:30;;;;;;;1.70;1.50;;;2.70;98.20;;;;;;5031808;28;20584;-74
2021/12/06 06:04:00;;;;;;;1.70;1.50;;;2.70;98.20;;;;;;5045202;28;20456;-75
2021/12/06 06:06:28;;;;;;;1.70;1.50;;;2.70;98.20;;;;;;5033658;28;20527;-74
2021/12/06 06:08:56;;;;;;;1.70;1.60;;;2.70;98.20;;;;;;5042909;28;20492;-75
2021/12/06 06:11:22;;;;;;;1.70;1.50;;;2.70;98.20;;;;;;5033888;28;20486;-74
2021/12/06 06:13:50;;;;;;;1.60;1.50;;;2.70;98.20;;;;;;5043381;28;20454;-75
2021/12/06 06:16:20;;;;;;;1.70;1.60;;;2.70;98.20;;;;;;5032135;28;20549;-75
2021/12/06 06:18:48;;;;;;;1.70;1.50;;;2.70;98.20;;;;;;5039561;28;20470;-75
2021/12/06 06:21:16;;;;;;;1.83;1.73;;;2.70;98.20;;;;;;5032104;28;20554;-74
2021/12/06 06:23:43;;;;;;;1.70;1.50;;;2.60;98.20;;;;;;5037909;28;20466;-74
2021/12/06 06:26:10;;;;;;;1.70;1.50;;;2.60;98.20;;;;;;5030408;28;20975;-75
2021/12/06 06:28:37;;;;;;;1.70;1.57;;;2.60;98.20;;;;;;5043999;28;20458;-75
2021/12/06 06:31:05;;;;;;;1.80;1.70;;;2.60;98.20;;;;;;5036748;28;20454;-76
2021/12/06 06:33:33;;;;;;;1.70;1.60;;;2.60;98.20;;;;;;5045605;28;20503;-75
2021/12/06 06:36:00;;;;;;;1.70;1.50;;;2.60;98.20;;;;;;5032545;28;20544;-75
2021/12/06 06:38:27;;;;;;;1.60;1.50;;;2.60;98.20;;;;;;5037707;28;20485;-74
2021/12/06 06:40:55;;;;;;;1.60;1.40;;;2.60;98.20;;;;;;5034283;28;20493;-75
2021/12/06 06:43:22;;;;;;;1.70;1.60;;;2.60;98.20;;;;;;5034409;28;20613;-75
2021/12/06 06:45:49;;;;;;;1.70;1.50;;;2.70;98.20;;;;;;5035658;28;20478;-73
2021/12/06 06:48:16;;;;;;;1.70;1.60;;;2.70;98.20;;;;;;5043457;28;20463;-74
2021/12/06 06:50:44;;;;;;;1.60;1.50;;;2.70;98.20;;;;;;5038483;28;20492;-75
2021/12/06 06:53:11;;;;;;;1.63;1.50;;;2.70;98.20;;;;;;5032997;28;20868;-75
2021/12/06 06:55:38;;;;;;;1.70;1.60;;;2.70;98.20;;;;;;5038415;28;20585;-73
2021/12/06 06:58:06;;;;;;;1.70;1.60;;;2.80;98.20;;;;;;5012365;28;20479;-74
2021/12/06 07:00:37;;;;;;;1.70;1.60;;;2.80;98.20;;;;;;5023710;28;20447;-74
2021/12/06 07:03:06;;;;;;;1.67;1.50;;;2.80;98.20;;;;;;5015064;28;20480;-75
2021/12/06 07:05:33;;;;;;;1.63;1.43;;;2.80;98.20;;;;;;5042231;28;20458;-73
2021/12/06 07:08:02;;;;;;;1.63;1.50;;;2.90;98.20;;;;;;5019242;28;20481;-75
2021/12/06 07:10:29;;;;;;;1.63;1.50;;;2.90;98.20;;;;;;5044562;28;20454;-76
2021/12/06 07:12:59;;;;;;;1.60;1.43;;;2.90;98.20;;;;;;5028267;28;20858;-74
2021/12/06 07:15:32;;;;;;;1.67;1.50;;;2.90;98.20;;;;;;5049576;28;20470;-75
2021/12/06 07:18:01;;;;;;;1.67;1.43;;;2.90;98.20;;;;;;5029155;28;20542;-75
2021/12/06 07:20:29;;;;;;;1.63;1.50;;;2.90;98.20;;;;;;5050983;28;20458;-74
2021/12/06 07:22:57;;;;;;;1.70;1.60;;;2.90;98.20;;;;;;5025146;28;20554;-74
2021/12/06 07:25:26;;;;;;;1.70;1.50;;;2.90;98.20;;;;;;5041008;28;20609;-73
2021/12/06 07:27:54;;;;;;;1.70;1.50;;;2.90;98.20;;;;;;5032936;28;20994;-73
2021/12/06 07:30:22;;;;;;;1.70;1.60;;;2.90;98.20;;;;;;5041640;28;20489;-73
2021/12/06 07:32:51;;;;;;;1.63;1.47;;;2.90;98.20;;;;;;5040472;28;20482;-73
2021/12/06 07:35:19;;;;;;;1.60;1.40;;;2.90;98.20;;;;;;5044996;28;20467;-75
2021/12/06 07:37:46;;;;;;;1.63;1.50;;;2.90;98.20;;;;;;5037990;28;20484;-74
2021/12/06 07:40:16;;;;;;;1.63;1.43;;;2.90;98.20;;;;;;5043385;28;20463;-74
2021/12/06 07:42:46;;;;;;;1.67;1.40;;;2.90;98.20;;;;;;5036668;28;20478;-75
2021/12/06 07:45:14;;;;;;;1.63;1.50;;;3.00;98.20;;;;;;5035672;28;20926;-74
2021/12/06 07:47:42;;;;;;;1.70;1.60;;;3.00;98.20;;;;;;5018498;28;20796;-74
2021/12/06 07:50:12;;;;;;;1.70;1.50;;;3.00;98.20;;;;;;5038814;28;20523;-73
2021/12/06 07:52:41;;;;;;;1.70;1.57;;;3.00;98.20;;;;;;5033410;28;20580;-74
2021/12/06 07:55:11;;;;;;;1.67;1.50;;;3.10;98.20;;;;;;5041513;28;20961;-73
2021/12/06 07:57:38;;;;;;;1.70;1.60;;;3.10;98.20;;;;;;5033910;28;20486;-73
2021/12/06 08:00:10;;;;;;;1.70;1.60;;;3.10;98.20;;;;;;5041113;28;20940;-73
2021/12/06 08:02:37;;;;;;;1.67;1.50;;;3.10;98.20;;;;;;5032997;28;20492;-74
2021/12/06 08:07:46;;;;;;;1.63;1.40;;;3.20;98.20;;;;;;5036135;28;20572;-73
2021/12/06 08:10:14;;;;;;;1.67;1.50;;;3.30;98.20;;;;;;5041509;28;21120;-73
2021/12/06 08:12:41;;;;;;;1.67;1.50;;;3.30;98.20;;;;;;5034106;28;20561;-73
2021/12/06 08:15:10;;;;;;;1.67;1.50;;;3.30;98.20;;;;;;5041750;28;20466;-74
2021/12/06 08:17:37;;;;;;;1.60;1.50;;;3.40;98.20;;;;;;5035922;28;20481;-75
2021/12/06 08:20:06;;;;;;;1.70;1.50;;;3.40;98.20;;;;;;5039209;28;20473;-75
2021/12/06 08:22:33;;;;;;;1.67;1.57;;;3.40;98.20;;;;;;5030889;28;20486;-74
2021/12/06 08:25:00;;;;;;;1.70;1.60;;;3.40;98.20;;;;;;5037285;28;20466;-73
2021/12/06 08:27:28;;;;;;;1.70;1.50;;;3.40;98.20;;;;;;5037135;28;20926;-74
2021/12/06 08:29:55;;;;;;;1.70;1.50;;;3.40;98.20;;;;;;5037051;28;20471;-72
2021/12/06 08:32:23;;;;;;;1.63;1.50;;;3.40;98.20;;;;;;5036556;28;20547;-72
2021/12/06 08:34:50;;;;;;;1.63;1.40;;;3.40;98.20;;;;;;5036690;28;20545;-72
2021/12/06 08:37:17;;;;;;;1.60;1.40;;;3.50;98.20;;;;;;5035343;28;20528;-74
2021/12/06 08:39:44;;;;;;;1.67;1.50;;;3.50;98.20;;;;;;5041336;28;20463;-74
2021/12/06 08:42:11;;;;;;;1.90;1.80;;;3.50;98.20;;;;;;5031605;28;21056;-73
2021/12/06 08:44:38;;;;;;;1.67;1.50;;;3.50;98.20;;;;;;5041865;28;20466;-75
2021/12/06 08:47:06;;;;;;;1.60;1.50;;;3.50;98.20;;;;;;5032111;28;20486;-75
2021/12/06 08:49:34;;;;;;;1.63;1.40;;;3.50;98.20;;;;;;5042260;28;20466;-74
2021/12/06 08:52:02;;;;;;;2.53;2.33;;;3.50;98.20;;;;;;5026333;28;20577;-74
2021/12/06 08:54:30;;;;;;;2.47;2.30;;;3.50;98.20;;;;;;5037037;28;20467;-74
2021/12/06 08:56:59;;;;;;;1.70;1.50;;;3.50;98.20;;;;;;5023426;28;20830;-74
2021/12/06 08:59:26;;;;;;;1.60;1.30;;;3.50;98.20;;;;;;5043990;28;20455;-75
2021/12/06 09:01:56;;;;;;;1.63;1.40;;;3.60;98.20;;;;;;5028828;28;20489;-75
2021/12/06 09:04:24;;;;;;;1.67;1.43;;;3.60;98.20;;;;;;5043216;28;20485;-74
2021/12/06 09:06:54;;;;;;;1.60;1.40;;;3.70;98.20;;;;;;5033690;28;20489;-74
2021/12/06 09:09:22;;;;;;;1.67;1.40;;;3.70;98.20;;;;;;5043450;28;20466;-74
2021/12/06 09:11:51;;;;;;;1.67;1.50;;;3.80;98.20;;;;;;5026428;28;20594;-73
2021/12/06 09:14:18;;;;;;;1.67;1.40;;;3.80;98.20;;;;;;5038123;28;20877;-73
2021/12/06 09:16:46;;;;;;;1.67;1.40;;;3.80;98.20;;;;;;5030653;28;20976;-75
2021/12/06 09:19:15;;;;;;;1.63;1.30;;;3.80;98.20;;;;;;5041672;28;20463;-74
2021/12/06 09:21:44;;;;;;;1.70;1.40;;;3.80;98.20;;;;;;5027904;28;20991;-75
2021/12/06 09:24:18;;;;;;;1.70;1.50;;;3.80;98.20;;;;;;5035755;28;20841;-75
2021/12/06 09:26:46;;;;;;;1.70;1.50;;;3.80;98.20;;;;;;5024326;28;20483;-74
2021/12/06 09:29:13;;;;;;;1.63;1.40;;;3.80;98.20;;;;;;5039328;28;20545;-71
2021/12/06 09:31:41;;;;;;;1.67;1.50;;;3.80;98.20;;;;;;5029127;28;20485;-72
2021/12/06 09:34:08;;;;;;;1.63;1.40;;;3.80;98.20;;;;;;5039026;28;21557;-72
2021/12/06 09:36:36;;;;;;;1.63;1.40;;;3.80;98.20;;;;;;5029770;28;20486;-73
2021/12/06 09:39:05;;;;;;;1.67;1.40;;;3.90;98.20;;;;;;5039950;28;20836;-73
2021/12/06 09:41:33;;;;;;;1.70;1.57;;;3.90;98.20;;;;;;5026132;28;20524;-73
2021/12/06 09:44:02;;;;;;;1.60;1.40;;;3.90;98.20;;;;;;5038006;28;20460;-73
2021/12/06 09:46:34;;;;;;;2.60;2.40;;;3.90;98.20;;;;;;5029242;28;20494;-74
2021/12/06 09:49:03;;;;;;;1.60;1.40;;;3.90;98.20;;;;;;5041759;28;20466;-74
2021/12/06 09:51:30;;;;;;;1.70;1.40;;;3.90;98.20;;;;;;5028269;28;20494;-73
2021/12/06 09:53:59;;;;;;;1.67;1.50;;;3.90;98.20;;;;;;5034269;28;20522;-73
2021/12/06 09:56:30;;;;;;;1.60;1.40;;;3.90;98.20;;;;;;5029909;28;20571;-74
2021/12/06 09:59:00;;;;;;;2.27;2.07;;;4.00;98.20;;;;;;5034255;28;20470;-74
2021/12/06 10:01:30;;;;;;;1.70;1.50;;;4.10;98.20;;;;;;5026711;28;20578;-74
2021/12/06 10:03:59;;;;;;;2.10;1.90;;;4.20;98.20;;;;;;5037257;28;20459;-75
2021/12/06 10:06:28;;;;;;;1.60;1.40;;;4.30;98.20;;;;;;5028379;28;20484;-74
2021/12/06 10:08:57;;;;;;;1.70;1.40;;;4.40;98.20;;;;;;5037607;28;20978;-74
2021/12/06 10:11:26;;;;;;;1.67;1.40;;;4.30;98.20;;;;;;5025257;28;20489;-75
2021/12/06 10:13:54;;;;;;;1.67;1.40;;;4.40;98.20;;;;;;5032911;28;20462;-74
2021/12/06 10:16:24;;;;;;;1.63;1.40;;;4.50;98.20;;;;;;5033195;28;20496;-74
2021/12/06 10:18:51;;;;;;;2.80;2.60;;;4.50;98.20;;;;;;5042603;28;20498;-75
2021/12/06 10:21:19;;;;;;;1.60;1.40;;;4.70;98.20;;;;;;5029009;28;21189;-74
2021/12/06 10:23:47;;;;;;;1.60;1.30;;;4.80;98.20;;;;;;5035228;28;20494;-74
2021/12/06 10:26:17;;;;;;;2.07;1.87;;;4.80;98.20;;;;;;5027942;28;20486;-75
2021/12/06 10:28:45;;;;;;;1.70;1.40;;;4.70;98.20;;;;;;5040956;28;20540;-75
2021/12/06 10:31:14;;;;;;;2.13;1.93;;;4.70;98.20;;;;;;5032648;28;21158;-77
2021/12/06 10:33:46;;;;;;;1.60;1.33;;;4.80;98.20;;;;;;5041037;28;20656;-76
2021/12/06 10:36:17;;;;;;;1.63;1.40;;;4.80;98.20;;;;;;5032582;28;20517;-76
2021/12/06 10:38:47;;;;;;;1.60;1.40;;;4.90;98.20;;;;;;5041527;28;20466;-76
2021/12/06 10:41:17;;;;;;;6.50;6.10;;;4.90;98.20;;;;;;5027918;28;20513;-76
2021/12/06 10:43:52;;;;;;;1.60;1.30;;;4.90;98.20;;;;;;5030194;28;20483;-76
2021/12/06 10:46:19;;;;;;;2.10;1.90;;;4.90;98.20;;;;;;5031237;28;20547;-75
2021/12/06 10:48:48;;;;;;;1.60;1.40;;;4.90;98.20;;;;;;5041946;28;20498;-78
2021/12/06 10:51:17;;;;;;;1.70;1.40;;;4.90;98.20;;;;;;5030786;28;21141;-76
2021/12/06 10:53:48;;;;;;;1.70;1.40;;;4.80;98.20;;;;;;5035729;28;20561;-76
2021/12/06 10:56:20;;;;;;;1.60;1.30;;;4.80;98.20;;;;;;5023870;28;21086;-76
2021/12/06 10:58:50;;;;;;;1.70;1.40;;;4.80;98.20;;;;;;5034575;28;20474;-76
2021/12/06 11:01:26;;;;;;;1.67;1.37;;;4.90;98.20;;;;;;5023692;28;20470;-76
2021/12/06 11:03:56;;;;;;;1.60;1.30;;;5.00;98.20;;;;;;5039898;28;20631;-75
2021/12/06 11:06:27;;;;;;;1.60;1.30;;;5.00;98.20;;;;;;5029743;28;20568;-76
2021/12/06 11:08:56;;;;;;;1.60;1.30;;;4.90;98.20;;;;;;5040709;28;21021;-75
2021/12/06 11:11:28;;;;;;;1.60;1.30;;;4.90;98.20;;;;;;5030052;28;20491;-77
2021/12/06 11:13:58;;;;;;;1.60;1.30;;;4.90;98.20;;;;;;5037607;28;20467;-77
2021/12/06 11:16:27;;;;;;;1.60;1.30;;;5.00;98.20;;;;;;5029264;28;20494;-76
2021/12/06 11:18:57;;;;;;;1.60;1.30;;;5.10;98.20;;;;;;5039703;28;20570;-76
2021/12/06 11:21:31;;;;;;;1.60;1.30;;;5.20;98.20;;;;;;5026590;28;21074;-76
2021/12/06 11:24:08;;;;;;;1.70;1.40;;;5.20;98.20;;;;;;5032264;28;20517;-76
2021/12/06 11:26:38;;;;;;;1.70;1.50;;;5.10;98.20;;;;;;5027915;28;20482;-75
2021/12/06 11:29:09;;;;;;;1.70;1.40;;;5.10;98.20;;;;;;5038713;28;20826;-77
2021/12/06 11:31:37;;;;;;;4.80;4.50;;;5.10;98.20;;;;;;5028259;28;20490;-77
2021/12/06 11:34:07;;;;;;;1.63;1.30;;;5.10;98.20;;;;;;5035938;28;20546;-77
2021/12/06 11:36:35;;;;;;;1.60;1.37;;;4.90;98.20;;;;;;5032347;28;20521;-78
2021/12/06 11:39:06;;;;;;;1.60;1.30;;;4.80;98.20;;;;;;5036926;28;20467;-77
2021/12/06 11:41:34;;;;;;;1.67;1.30;;;4.80;98.20;;;;;;5028705;28;21070;-77
2021/12/06 11:44:14;;;;;;;1.60;1.30;;;4.80;98.20;;;;;;5040483;28;20483;-76
2021/12/06 11:46:42;;;;;;;1.63;1.30;;;4.70;98.20;;;;;;5023827;28;20523;-77
2021/12/06 11:49:19;;;;;;;1.67;1.40;;;4.70;98.20;;;;;;5039400;28;20478;-78
2021/12/06 11:51:47;;;;;;;1.63;1.30;;;4.80;98.20;;;;;;5029482;28;20994;-76
2021/12/06 11:54:14;;;;;;;1.63;1.30;;;4.90;98.20;;;;;;5039274;28;20465;-77
2021/12/06 11:59:59;;;;;;;1.60;1.30;;;5.00;98.20;;;;;;5046263;28;20611;-77
2021/12/06 12:02:37;;;;;;;1.60;1.30;;;4.90;98.20;;;;;;5029075;28;20482;-77
2021/12/06 12:05:23;;;;;;;1.60;1.30;;;5.00;98.20;;;;;;5044466;28;20473;-77
2021/12/06 12:08:09;;;;;;;1.60;1.30;;;5.10;98.20;;;;;;5030460;28;20562;-77
2021/12/06 12:10:41;;;;;;;6.63;2.83;;;5.20;98.20;;;;;;5039151;28;20946;-77
2021/12/06 12:13:21;;;;;;;1.60;1.30;;;5.40;98.20;;;;;;5019001;28;20482;-77
2021/12/06 12:15:48;;;;;;;2.93;2.67;;;5.50;98.20;;;;;;5032643;28;21020;-74
2021/12/06 12:18:30;;;;;;;1.63;1.30;;;5.60;98.20;;;;;;5041974;28;20783;-77
2021/12/06 12:20:59;;;;;;;1.60;1.30;;;5.80;98.20;;;;;;5030569;28;20506;-77
2021/12/06 12:23:32;;;;;;;1.60;1.30;;;5.90;98.20;;;;;;5038885;28;20573;-77
2021/12/06 12:26:04;;;;;;;1.60;1.30;;;6.00;98.20;;;;;;5029327;28;20489;-77
2021/12/06 12:28:36;;;;;;;1.60;1.20;;;6.10;98.20;;;;;;5044119;28;20459;-77
2021/12/06 12:31:05;;;;;;;1.60;1.30;;;6.10;98.20;;;;;;5031780;28;20471;-77
2021/12/06 12:33:33;;;;;;;1.60;1.30;;;6.10;98.20;;;;;;5038126;28;20469;-77
2021/12/06 12:36:06;;;;;;;1.60;1.30;;;6.10;98.20;;;;;;5033919;28;20486;-76
2021/12/06 12:38:36;;;;;;;1.60;1.30;;;6.10;98.20;;;;;;5043906;28;20454;-76
2021/12/06 12:41:08;;;;;;;1.60;1.30;;;6.10;98.20;;;;;;5033437;28;20844;-77
2021/12/06 12:43:38;;;;;;;1.60;1.30;;;6.10;98.20;;;;;;5037441;28;21046;-77
2021/12/06 12:46:09;;;;;;;1.60;1.30;;;6.20;98.20;;;;;;5025254;28;20520;-77
2021/12/06 12:48:53;;;;;;;1.60;1.30;;;6.20;98.20;;;;;;5035159;28;20458;-76
2021/12/06 12:51:26;;;;;;;1.67;1.30;;;6.20;98.20;;;;;;5030717;28;20509;-76
2021/12/06 12:54:01;;;;;;;1.60;1.30;;;6.10;98.20;;;;;;5043575;28;20495;-76
2021/12/06 12:56:31;;;;;;;1.70;1.40;;;6.10;98.20;;;;;;5029833;28;20485;-77
2021/12/06 12:58:59;;;;;;;1.60;1.30;;;6.00;98.20;;;;;;5039365;28;20462;-77
2021/12/06 13:01:29;;;;;;;1.60;1.30;;;6.00;98.20;;;;;;5028163;28;20879;-77
2021/12/06 13:03:58;;;;;;;1.70;1.30;;;6.00;98.20;;;;;;5045751;28;20859;-79
2021/12/06 13:06:30;;;;;;;1.60;1.30;;;6.00;98.20;;;;;;5032521;28;20490;-77
2021/12/06 13:09:01;;;;;;;1.60;1.30;;;6.00;98.20;;;;;;5034954;28;20470;-75
2021/12/06 13:11:31;;;;;;;1.60;1.20;;;6.00;98.20;;;;;;5026819;28;20494;-74
2021/12/06 13:13:58;;;;;;;1.70;1.30;;;5.90;98.20;;;;;;5037963;28;20459;-75
2021/12/06 13:16:49;;;;;;;1.60;1.30;;;5.90;98.20;;;;;;5023417;28;20497;-76
2021/12/06 13:19:24;;;;;;;1.70;1.50;;;5.80;98.20;;;;;;5038292;28;21017;-76